Time;durP1;ratioP1;P1;durP2;ratioP2;P2;SDS_P1;SDS_P2;PMS_P1;PMS_P2;Temp;Humidity;BMP_temperature;BMP_pressure;BME280_temperature;BME280_humidity;BME280_pressure;Samples;Min_cycle;Max_cycle;Signal;HPM_P1;HPM_P2
2021/01/22 00:00:58;;;;;;;0.90;0.50;;;10.50;1.00;;;;;;5075698;28;20308;-68
2021/01/22 00:03:23;;;;;;;2.87;0.90;;;10.50;1.00;;;;;;5075497;28;20517;-68
2021/01/22 00:05:49;;;;;;;2.83;1.20;;;10.50;1.00;;;;;;5075394;28;20165;-68
2021/01/22 00:08:14;;;;;;;2.50;0.87;;;10.50;1.00;;;;;;5075317;28;20214;-68
2021/01/22 00:10:40;;;;;;;2.50;0.90;;;10.50;1.00;;;;;;5075405;28;20198;-67
2021/01/22 00:13:06;;;;;;;1.07;0.80;;;10.50;1.00;;;;;;5075546;28;20165;-68
2021/01/22 00:15:31;;;;;;;2.80;0.93;;;10.50;1.00;;;;;;5075480;28;20171;-68
2021/01/22 00:17:58;;;;;;;2.27;0.70;;;10.50;1.00;;;;;;5075209;28;20167;-68
2021/01/22 00:20:23;;;;;;;1.20;0.70;;;10.50;1.00;;;;;;5075154;28;20199;-68
2021/01/22 00:22:49;;;;;;;1.87;1.00;;;10.40;1.00;;;;;;5075146;28;20385;-68
2021/01/22 00:25:14;;;;;;;2.70;1.10;;;10.40;1.00;;;;;;5075043;28;20168;-68
2021/01/22 00:27:40;;;;;;;4.70;1.10;;;10.50;1.00;;;;;;5075494;28;20169;-67
2021/01/22 00:30:06;;;;;;;4.93;1.20;;;10.60;1.00;;;;;;5075157;28;20214;-68
2021/01/22 00:32:32;;;;;;;7.20;1.07;;;10.60;1.00;;;;;;5074848;28;20293;-68
2021/01/22 00:34:58;;;;;;;6.40;1.63;;;10.60;1.00;;;;;;5074879;28;20403;-68
2021/01/22 00:37:23;;;;;;;3.60;1.70;;;10.60;1.00;;;;;;5073925;28;20172;-68
2021/01/22 00:39:49;;;;;;;8.53;1.50;;;10.70;1.00;;;;;;5075019;28;20659;-68
2021/01/22 00:42:14;;;;;;;6.50;1.53;;;10.70;1.00;;;;;;5074590;28;20633;-69
2021/01/22 00:44:41;;;;;;;7.13;1.73;;;10.70;1.00;;;;;;5074643;28;20527;-68
2021/01/22 00:47:06;;;;;;;7.50;2.53;;;10.70;1.00;;;;;;5074689;28;20649;-68
2021/01/22 00:49:32;;;;;;;9.47;1.33;;;10.70;1.00;;;;;;5074369;28;20426;-68
2021/01/22 00:51:57;;;;;;;8.90;2.17;;;10.70;1.00;;;;;;5074477;28;20164;-68
2021/01/22 00:54:23;;;;;;;5.13;1.60;;;10.70;1.00;;;;;;5074683;28;20168;-68
2021/01/22 00:56:48;;;;;;;2.80;1.00;;;10.80;1.00;;;;;;5074367;28;20545;-68
2021/01/22 00:59:14;;;;;;;3.87;2.67;;;10.80;1.00;;;;;;5074177;28;20168;-68
2021/01/22 01:01:40;;;;;;;7.43;1.50;;;10.80;1.00;;;;;;5074256;28;20176;-68
2021/01/22 01:04:05;;;;;;;3.67;1.20;;;10.80;1.00;;;;;;5074184;28;20168;-68
2021/01/22 01:06:31;;;;;;;2.83;1.07;;;10.80;1.00;;;;;;5074148;28;20197;-68
2021/01/22 01:08:57;;;;;;;5.33;1.53;;;10.80;1.00;;;;;;5072903;28;20632;-68
2021/01/22 01:11:22;;;;;;;7.80;0.90;;;10.80;1.00;;;;;;5073928;28;20191;-67
2021/01/22 01:13:48;;;;;;;2.77;1.10;;;10.80;1.00;;;;;;5074359;28;20395;-68
2021/01/22 01:16:13;;;;;;;3.87;1.33;;;10.80;1.00;;;;;;5074201;28;20251;-68
2021/01/22 01:18:39;;;;;;;2.50;1.07;;;10.80;1.00;;;;;;5074004;28;20160;-68
2021/01/22 01:21:05;;;;;;;6.67;1.37;;;10.70;1.00;;;;;;5073893;28;20227;-68
2021/01/22 01:23:30;;;;;;;2.00;1.00;;;10.70;1.00;;;;;;5073915;28;20196;-68
2021/01/22 01:25:56;;;;;;;4.87;1.33;;;10.70;1.00;;;;;;5073739;28;20271;-68
2021/01/22 01:28:21;;;;;;;2.27;1.10;;;10.70;1.00;;;;;;5072572;28;20706;-68
2021/01/22 01:30:47;;;;;;;3.50;1.13;;;10.70;1.00;;;;;;5072275;28;20205;-68
2021/01/22 01:33:13;;;;;;;3.10;1.60;;;10.70;1.00;;;;;;5073574;28;20167;-68
2021/01/22 01:35:38;;;;;;;6.30;1.17;;;10.70;1.00;;;;;;5073631;28;20245;-68
2021/01/22 01:38:04;;;;;;;2.90;1.30;;;10.70;1.00;;;;;;5073577;28;20172;-67
2021/01/22 01:40:30;;;;;;;2.07;1.13;;;10.70;1.00;;;;;;5073425;28;20197;-68
2021/01/22 01:42:55;;;;;;;6.53;1.17;;;10.70;1.00;;;;;;5073523;28;20197;-68
2021/01/22 01:45:21;;;;;;;4.00;1.30;;;10.70;1.00;;;;;;5073708;28;20194;-68
2021/01/22 01:47:47;;;;;;;1.13;0.80;;;10.60;1.00;;;;;;5073343;28;20184;-68
2021/01/22 01:50:13;;;;;;;3.17;1.37;;;10.60;1.00;;;;;;5071979;28;20197;-68
2021/01/22 01:52:39;;;;;;;1.77;1.17;;;10.70;1.00;;;;;;5072010;28;20172;-68
2021/01/22 01:55:06;;;;;;;3.67;1.33;;;10.70;1.00;;;;;;5073221;28;20402;-67
2021/01/22 01:57:32;;;;;;;3.10;1.37;;;10.60;1.00;;;;;;5073467;28;20883;-68
2021/01/22 01:59:59;;;;;;;5.17;0.70;;;10.60;1.00;;;;;;5073214;28;20440;-68
2021/01/22 02:02:25;;;;;;;3.17;0.77;;;10.60;1.00;;;;;;5073236;28;20525;-67
2021/01/22 02:04:51;;;;;;;4.13;0.60;;;10.60;1.00;;;;;;5073223;28;20404;-68
2021/01/22 02:07:17;;;;;;;1.30;0.70;;;10.60;1.00;;;;;;5073188;28;20470;-68
2021/01/22 02:09:42;;;;;;;3.17;0.83;;;10.60;1.00;;;;;;5073056;28;20925;-68
2021/01/22 02:12:09;;;;;;;5.03;0.93;;;10.50;1.00;;;;;;5073184;28;20203;-68
2021/01/22 02:14:36;;;;;;;2.10;0.60;;;10.50;1.00;;;;;;5072975;28;20177;-67
2021/01/22 02:17:03;;;;;;;7.07;1.43;;;10.40;1.00;;;;;;5073220;28;20427;-66
2021/01/22 02:19:48;;;;;;;5.40;1.27;;;10.30;5.70;;;;;;5073134;28;20517;-68
2021/01/22 02:22:14;;;;;;;7.27;3.33;;;10.30;28.80;;;;;;5072714;28;20423;-68
2021/01/22 02:24:42;;;;;;;2.47;0.70;;;10.20;99.90;;;;;;5073181;28;20784;-68
2021/01/22 02:27:08;;;;;;;4.88;0.52;;;9.30;50.80;;;;;;5073035;28;20161;-68
2021/01/22 02:29:36;;;;;;;1.40;0.60;;;8.90;94.30;;;;;;5072768;28;20179;-68
2021/01/22 02:32:05;;;;;;;0.80;0.50;;;8.40;99.90;;;;;;5072787;28;20168;-68
2021/01/22 02:34:34;;;;;;;0.60;0.30;;;8.30;99.90;;;;;;5072842;28;20175;-68
2021/01/22 02:37:03;;;;;;;0.90;0.40;;;7.90;99.90;;;;;;5072753;28;20168;-69
2021/01/22 02:39:41;;;;;;;0.90;0.52;;;7.90;99.90;;;;;;5072581;28;20192;-68
2021/01/22 02:42:08;;;;;;;1.58;0.75;;;7.90;1.00;;;;;;5073074;28;20559;-69
2021/01/22 02:44:35;;;;;;;1.67;0.68;;;7.60;1.00;;;;;;5072962;28;20693;-69
2021/01/22 02:47:04;;;;;;;1.02;0.45;;;7.60;99.90;;;;;;5072803;28;20255;-69
2021/01/22 02:49:30;;;;;;;1.42;0.85;;;7.60;99.90;;;;;;5072598;28;20196;-69
2021/01/22 02:51:58;;;;;;;2.77;0.50;;;7.40;99.90;;;;;;5072760;28;20301;-68
2021/01/22 02:54:24;;;;;;;1.50;0.50;;;7.50;55.20;;;;;;5072849;28;20176;-69
2021/01/22 02:56:55;;;;;;;1.13;0.60;;;7.20;99.90;;;;;;5072601;28;20167;-69
2021/01/22 02:59:54;;;;;;;0.90;0.60;;;7.20;1.00;;;;;;5072893;28;20206;-68
2021/01/22 03:02:53;;;;;;;1.67;0.98;;;7.00;1.00;;;;;;5077013;28;20677;-69
2021/01/22 03:05:23;;;;;;;2.88;1.70;;;6.70;99.90;;;;;;5076857;28;20171;-69
2021/01/22 03:07:54;;;;;;;2.65;1.80;;;6.50;96.70;;;;;;5076485;28;20164;-68
2021/01/22 03:10:21;;;;;;;1.65;1.38;;;6.50;1.00;;;;;;5076241;28;20255;-69
2021/01/22 03:12:48;;;;;;;5.55;1.63;;;6.30;99.90;;;;;;5076435;28;20176;-69
2021/01/22 03:15:16;;;;;;;1.10;0.70;;;6.20;1.00;;;;;;5076460;28;20164;-69
2021/01/22 03:17:43;;;;;;;1.70;1.60;;;6.00;99.90;;;;;;5076283;28;20214;-68
2021/01/22 03:20:14;;;;;;;1.98;1.67;;;6.00;99.90;;;;;;5074878;28;20298;-69
2021/01/22 03:22:39;;;;;;;3.45;1.70;;;5.90;99.90;;;;;;5077034;28;20672;-68
2021/01/22 03:25:06;;;;;;;5.50;3.40;;;5.80;69.30;;;;;;5076308;28;20256;-69
2021/01/22 03:27:32;;;;;;;2.13;1.30;;;6.00;99.90;;;;;;5074771;28;20184;-69
2021/01/22 03:29:57;;;;;;;3.70;1.90;;;5.90;97.20;;;;;;5075869;28;20196;-69
2021/01/22 03:32:23;;;;;;;2.43;2.03;;;5.80;1.00;;;;;;5076176;28;20637;-69
2021/01/22 03:34:48;;;;;;;2.07;1.63;;;5.70;99.90;;;;;;5075993;28;20642;-68
2021/01/22 03:37:14;;;;;;;2.70;2.17;;;5.80;99.90;;;;;;5075894;28;20179;-68
2021/01/22 03:39:39;;;;;;;1.97;1.40;;;5.60;1.00;;;;;;5075979;28;20329;-69
2021/01/22 03:42:05;;;;;;;1.87;1.37;;;5.50;42.90;;;;;;5075792;28;20160;-68
2021/01/22 03:44:31;;;;;;;2.97;1.60;;;5.30;99.90;;;;;;5075792;28;20160;-68
2021/01/22 03:46:57;;;;;;;1.65;1.38;;;5.40;99.90;;;;;;5075561;28;20463;-68
2021/01/22 03:49:23;;;;;;;1.80;1.20;;;5.30;99.90;;;;;;5075501;28;20226;-69
2021/01/22 03:51:48;;;;;;;2.00;1.10;;;5.20;99.90;;;;;;5075340;28;20192;-68
2021/01/22 03:54:14;;;;;;;5.53;1.43;;;5.20;99.90;;;;;;5075476;28;20192;-69
2021/01/22 03:56:40;;;;;;;1.50;1.20;;;5.30;99.90;;;;;;5075339;28;20176;-68
2021/01/22 03:59:06;;;;;;;3.75;1.65;;;5.30;1.00;;;;;;5075512;28;20178;-69
2021/01/22 04:01:32;;;;;;;1.50;1.30;;;5.50;99.90;;;;;;5075575;28;20251;-69
2021/01/22 04:03:57;;;;;;;2.40;1.70;;;5.40;99.90;;;;;;5075646;28;20236;-69
2021/01/22 04:06:23;;;;;;;1.80;1.60;;;5.50;89.20;;;;;;5075560;28;20172;-69
2021/01/22 04:08:49;;;;;;;3.27;1.93;;;5.70;99.90;;;;;;5075176;28;20407;-69
2021/01/22 04:11:15;;;;;;;1.63;1.50;;;5.60;18.30;;;;;;5073618;28;20438;-69
2021/01/22 04:13:41;;;;;;;1.85;1.45;;;5.40;1.00;;;;;;5075187;28;20183;-69
2021/01/22 04:16:06;;;;;;;2.90;2.03;;;5.50;1.00;;;;;;5075059;28;20161;-69
2021/01/22 04:18:32;;;;;;;1.60;1.40;;;5.50;1.00;;;;;;5075071;28;20165;-69
2021/01/22 04:20:58;;;;;;;2.47;2.23;;;5.30;99.90;;;;;;5074985;28;20196;-68
2021/01/22 04:23:23;;;;;;;2.20;1.63;;;5.60;99.90;;;;;;5075254;28;20176;-67
2021/01/22 04:25:49;;;;;;;2.93;2.47;;;5.70;99.90;;;;;;5074866;28;20258;-68
2021/01/22 04:28:14;;;;;;;2.73;2.43;;;5.50;1.00;;;;;;5074916;28;20164;-67
2021/01/22 04:30:40;;;;;;;2.73;2.50;;;5.40;99.90;;;;;;5074677;28;20203;-68
2021/01/22 04:33:06;;;;;;;3.67;2.97;;;5.60;99.90;;;;;;5074868;28;20571;-68
2021/01/22 04:35:31;;;;;;;6.90;3.10;;;5.50;1.00;;;;;;5074503;28;20536;-69
2021/01/22 04:37:58;;;;;;;3.43;2.90;;;5.40;99.90;;;;;;5074502;28;20645;-68
2021/01/22 04:40:25;;;;;;;3.60;3.30;;;5.30;54.80;;;;;;5074738;28;20242;-68
2021/01/22 04:42:50;;;;;;;3.30;3.00;;;5.60;49.50;;;;;;5075040;28;20168;-68
2021/01/22 04:45:16;;;;;;;3.67;3.37;;;5.40;99.90;;;;;;5073503;28;20164;-68
2021/01/22 04:47:42;;;;;;;3.87;3.47;;;5.70;80.80;;;;;;5074354;28;20429;-66
2021/01/22 04:50:09;;;;;;;4.82;3.42;;;5.40;99.90;;;;;;5074473;28;20196;-68
2021/01/22 04:52:36;;;;;;;4.78;4.28;;;5.70;99.90;;;;;;5074606;28;20239;-68
2021/01/22 04:55:06;;;;;;;4.38;3.97;;;5.50;99.90;;;;;;5074303;28;20164;-68
2021/01/22 04:57:37;;;;;;;3.90;3.50;;;5.70;99.90;;;;;;5074310;28;20164;-68
2021/01/22 05:00:04;;;;;;;4.82;4.28;;;5.60;1.00;;;;;;5074319;28;20195;-68
2021/01/22 05:02:31;;;;;;;4.82;4.43;;;5.60;1.00;;;;;;5074124;28;20540;-68
2021/01/22 05:04:58;;;;;;;4.35;3.75;;;5.60;1.00;;;;;;5073832;28;20518;-69
2021/01/22 05:07:24;;;;;;;3.95;3.65;;;5.60;1.00;;;;;;5072500;28;20229;-68
2021/01/22 05:09:50;;;;;;;4.70;4.30;;;5.80;1.00;;;;;;5073674;28;20192;-69
2021/01/22 05:12:16;;;;;;;5.37;4.87;;;5.80;1.00;;;;;;5074277;28;20649;-69
2021/01/22 05:14:42;;;;;;;6.00;4.77;;;5.80;1.00;;;;;;5073806;28;20389;-69
2021/01/22 05:17:10;;;;;;;6.77;5.13;;;5.70;1.00;;;;;;5074185;28;20194;-68
2021/01/22 05:19:37;;;;;;;5.03;4.53;;;5.90;52.70;;;;;;5073950;28;20499;-69
2021/01/22 05:22:04;;;;;;;6.82;6.10;;;6.00;1.00;;;;;;5073547;28;20168;-68
2021/01/22 05:24:31;;;;;;;5.95;4.25;;;5.70;1.00;;;;;;5073345;28;20234;-68
2021/01/22 05:27:11;;;;;;;5.10;4.38;;;5.70;99.90;;;;;;5073417;28;20168;-68
2021/01/22 05:29:38;;;;;;;4.47;4.07;;;5.90;99.90;;;;;;5073421;28;20598;-68
2021/01/22 05:32:30;;;;;;;6.88;4.93;;;6.00;1.00;;;;;;5073463;28;20785;-67
2021/01/22 05:34:56;;;;;;;6.35;4.88;;;6.00;1.00;;;;;;5073534;28;20167;-69
2021/01/22 05:37:26;;;;;;;4.50;4.10;;;5.90;1.00;;;;;;5073554;28;20521;-69
2021/01/22 05:40:07;;;;;;;5.55;5.00;;;5.80;1.00;;;;;;5073527;28;20212;-69
2021/01/22 05:42:47;;;;;;;5.25;4.80;;;5.90;1.00;;;;;;5073182;28;20213;-69
2021/01/22 05:45:15;;;;;;;6.80;5.13;;;5.80;1.00;;;;;;5073329;28;20159;-69
2021/01/22 05:47:41;;;;;;;7.35;4.32;;;5.80;99.90;;;;;;5073190;28;20183;-69
2021/01/22 05:50:07;;;;;;;3.70;3.33;;;5.80;99.90;;;;;;5073304;28;20204;-69
2021/01/22 05:52:33;;;;;;;9.18;4.80;;;6.00;40.40;;;;;;5073363;28;20160;-69
2021/01/22 05:55:00;;;;;;;9.73;6.57;;;5.90;1.00;;;;;;5073059;28;20176;-69
2021/01/22 05:57:37;;;;;;;7.78;5.43;;;6.00;1.00;;;;;;5073100;28;20414;-68
2021/01/22 06:00:13;;;;;;;5.07;4.47;;;6.00;1.00;;;;;;5073236;28;20274;-67
2021/01/22 06:02:39;;;;;;;11.35;5.43;;;6.10;1.00;;;;;;5073247;28;20156;-69
2021/01/22 06:05:11;;;;;;;9.10;5.77;;;6.00;1.00;;;;;;5073013;28;20299;-69
2021/01/22 06:07:38;;;;;;;6.22;5.47;;;6.00;1.00;;;;;;5073066;28;20172;-68
2021/01/22 06:10:20;;;;;;;7.25;5.40;;;6.10;1.00;;;;;;5072764;28;20688;-69
2021/01/22 06:12:51;;;;;;;6.82;5.47;;;6.10;1.00;;;;;;5072745;28;20588;-69
2021/01/22 06:15:19;;;;;;;7.25;4.90;;;5.90;1.00;;;;;;5072629;28;20515;-68
2021/01/22 06:17:53;;;;;;;5.95;5.20;;;6.10;1.00;;;;;;5072739;28;20596;-69
2021/01/22 06:20:21;;;;;;;6.40;5.22;;;6.10;1.00;;;;;;5072678;28;20194;-69
2021/01/22 06:22:59;;;;;;;9.40;5.65;;;6.10;1.00;;;;;;5072852;28;20175;-68
2021/01/22 06:25:26;;;;;;;10.20;5.85;;;6.10;1.00;;;;;;5072567;28;20152;-69
2021/01/22 06:27:54;;;;;;;12.60;6.35;;;6.20;99.90;;;;;;5072969;28;20175;-69
2021/01/22 06:30:20;;;;;;;8.50;6.30;;;6.10;99.90;;;;;;5072627;28;20204;-68
2021/01/22 06:32:46;;;;;;;9.70;7.45;;;6.10;99.90;;;;;;5072974;28;20637;-68
2021/01/22 06:35:13;;;;;;;8.90;6.33;;;6.10;99.90;;;;;;5071590;28;20298;-68
2021/01/22 06:37:40;;;;;;;8.68;6.65;;;6.10;1.00;;;;;;5072284;28;20406;-68
2021/01/22 06:40:06;;;;;;;9.18;5.95;;;6.00;1.00;;;;;;5072545;28;20561;-68
2021/01/22 06:42:38;;;;;;;13.85;8.57;;;6.00;1.00;;;;;;5072855;28;20168;-69
2021/01/22 06:45:05;;;;;;;13.55;7.13;;;6.10;1.00;;;;;;5072401;28;20282;-69
2021/01/22 06:47:30;;;;;;;8.32;4.95;;;6.10;99.90;;;;;;5072274;28;20179;-69
2021/01/22 06:49:56;;;;;;;7.63;5.17;;;6.00;99.90;;;;;;5072335;28;20278;-69
2021/01/22 06:52:22;;;;;;;6.30;5.07;;;6.00;99.90;;;;;;5072298;28;20172;-69
2021/01/22 06:54:56;;;;;;;6.00;5.07;;;5.90;99.90;;;;;;5072249;28;20229;-67
2021/01/22 06:57:22;;;;;;;11.77;5.60;;;6.00;99.90;;;;;;5072378;28;20178;-68
2021/01/22 06:59:48;;;;;;;6.82;4.82;;;6.00;99.90;;;;;;5072192;28;20672;-68
2021/01/22 07:02:32;;;;;;;7.10;4.80;;;5.80;99.90;;;;;;5072055;28;20218;-69
2021/01/22 07:04:58;;;;;;;9.07;5.55;;;5.80;99.90;;;;;;5072282;28;20199;-69
2021/01/22 07:07:48;;;;;;;5.20;4.35;;;5.80;99.90;;;;;;5072424;28;20250;-69
2021/01/22 07:10:14;;;;;;;6.88;5.38;;;5.70;1.00;;;;;;5071898;28;20200;-69
2021/01/22 07:12:42;;;;;;;6.70;5.43;;;5.70;1.00;;;;;;5072284;28;20175;-71
2021/01/22 07:15:21;;;;;;;8.73;6.85;;;5.80;1.00;;;;;;5070950;28;20196;-69
2021/01/22 07:17:51;;;;;;;7.03;5.10;;;5.80;1.00;;;;;;5072599;28;20532;-68
2021/01/22 07:20:17;;;;;;;7.85;5.28;;;6.00;1.00;;;;;;5071141;28;20235;-69
2021/01/22 07:22:56;;;;;;;6.47;5.30;;;6.10;1.00;;;;;;5072608;28;20341;-68
2021/01/22 07:25:54;;;;;;;6.90;4.88;;;6.10;1.00;;;;;;5072680;28;20389;-69
2021/01/22 07:28:24;;;;;;;6.57;5.20;;;6.10;1.00;;;;;;5072026;28;20184;-69
2021/01/22 07:30:53;;;;;;;6.25;4.72;;;5.90;1.00;;;;;;5071889;28;20196;-68
2021/01/22 07:33:27;;;;;;;5.82;4.95;;;5.90;1.00;;;;;;5071992;28;20609;-69
2021/01/22 07:36:23;;;;;;;6.85;5.07;;;5.80;1.00;;;;;;5072372;28;20177;-69
2021/01/22 07:38:50;;;;;;;7.60;5.10;;;6.00;1.00;;;;;;5063627;28;20183;-69
2021/01/22 07:41:21;;;;;;;6.28;3.60;;;6.10;99.90;;;;;;5071909;28;20227;-68
2021/01/22 07:44:01;;;;;;;6.72;4.40;;;6.00;99.90;;;;;;5071988;28;20160;-69
2021/01/22 07:46:27;;;;;;;6.72;4.43;;;6.00;99.90;;;;;;5074042;28;20229;-68
2021/01/22 07:49:06;;;;;;;5.10;4.05;;;6.00;99.90;;;;;;5075503;28;20217;-69
2021/01/22 07:51:34;;;;;;;7.07;4.28;;;6.00;99.90;;;;;;5075732;28;20180;-69
2021/01/22 07:54:01;;;;;;;6.32;5.07;;;5.90;99.90;;;;;;5075346;28;20228;-69
2021/01/22 07:56:40;;;;;;;8.98;4.47;;;6.00;1.00;;;;;;5075602;28;20164;-70
2021/01/22 07:59:07;;;;;;;10.35;4.10;;;5.90;99.90;;;;;;5075349;28;20182;-68
2021/01/22 08:01:34;;;;;;;3.75;2.72;;;6.00;1.00;;;;;;5075600;28;20164;-69
2021/01/22 08:04:00;;;;;;;9.27;4.53;;;6.10;1.00;;;;;;5075424;28;20190;-68
2021/01/22 08:06:25;;;;;;;19.13;7.10;;;6.00;99.90;;;;;;5075075;28;20249;-68
2021/01/22 08:09:12;;;;;;;7.70;3.47;;;6.10;99.90;;;;;;5074945;28;20343;-69
2021/01/22 08:11:38;;;;;;;6.95;3.05;;;6.00;99.90;;;;;;5075115;28;20696;-69
2021/01/22 08:14:04;;;;;;;3.70;3.20;;;5.90;99.90;;;;;;5074966;28;20179;-68
2021/01/22 08:16:30;;;;;;;6.03;3.40;;;5.80;1.00;;;;;;5073653;28;20168;-69
2021/01/22 08:18:56;;;;;;;3.40;2.67;;;5.90;1.00;;;;;;5075520;28;20157;-69
2021/01/22 08:21:21;;;;;;;3.43;2.47;;;5.90;1.00;;;;;;5075026;28;20191;-68
2021/01/22 08:23:48;;;;;;;3.10;2.20;;;6.00;99.90;;;;;;5074902;28;20564;-69
2021/01/22 08:26:16;;;;;;;6.05;2.33;;;6.00;99.90;;;;;;5074818;28;20555;-69
2021/01/22 08:28:43;;;;;;;3.53;2.30;;;6.00;99.90;;;;;;5074783;28;20168;-68
2021/01/22 08:31:12;;;;;;;8.80;3.50;;;6.00;1.00;;;;;;5073391;28;20250;-70
2021/01/22 08:33:38;;;;;;;6.55;2.00;;;6.10;1.00;;;;;;5073511;28;20175;-69
2021/01/22 08:36:08;;;;;;;4.05;1.80;;;6.00;99.90;;;;;;5075030;28;20206;-68
2021/01/22 08:38:35;;;;;;;3.55;1.98;;;6.10;99.90;;;;;;5074823;28;20642;-69
2021/01/22 08:41:01;;;;;;;3.50;2.15;;;6.10;99.90;;;;;;5074741;28;20199;-69
2021/01/22 08:43:26;;;;;;;2.87;1.83;;;6.00;99.90;;;;;;5074918;28;20164;-69
2021/01/22 08:46:11;;;;;;;9.37;2.63;;;6.00;99.90;;;;;;5074801;28;20541;-67
2021/01/22 08:48:37;;;;;;;3.42;1.95;;;5.90;1.00;;;;;;5074541;28;20179;-68
2021/01/22 08:51:04;;;;;;;1.50;1.10;;;6.00;99.90;;;;;;5074335;28;20560;-68
2021/01/22 08:53:29;;;;;;;1.92;1.50;;;6.00;99.90;;;;;;5074404;28;20641;-69
2021/01/22 08:56:15;;;;;;;2.87;1.60;;;6.10;99.90;;;;;;5074301;28;20270;-69
2021/01/22 08:59:19;;;;;;;2.78;1.48;;;5.90;99.90;;;;;;5073427;28;20644;-69
2021/01/22 09:01:50;;;;;;;3.00;1.75;;;6.00;99.90;;;;;;5032637;28;20181;-68
2021/01/22 09:04:18;;;;;;;5.93;1.98;;;6.10;99.90;;;;;;5032526;28;20277;-68
2021/01/22 09:06:51;;;;;;;2.38;1.52;;;6.10;99.90;;;;;;5054172;28;20219;-68
2021/01/22 09:09:36;;;;;;;1.50;1.08;;;6.10;99.90;;;;;;5075046;28;20179;-68
2021/01/22 09:12:19;;;;;;;2.35;1.30;;;6.10;99.90;;;;;;5074460;28;20195;-67
2021/01/22 09:14:49;;;;;;;1.70;1.17;;;6.10;99.90;;;;;;5074402;28;20235;-68
2021/01/22 09:17:21;;;;;;;1.80;1.23;;;6.10;99.90;;;;;;5074213;28;20586;-67
2021/01/22 09:20:01;;;;;;;2.38;1.15;;;6.20;99.90;;;;;;5074120;28;20673;-68
2021/01/22 09:22:30;;;;;;;2.50;1.50;;;6.20;99.90;;;;;;5073991;28;20531;-67
2021/01/22 09:24:57;;;;;;;2.95;1.10;;;6.10;99.90;;;;;;5073521;28;20164;-68
2021/01/22 09:27:23;;;;;;;6.07;1.83;;;6.10;99.90;;;;;;5073390;28;20165;-68
2021/01/22 09:29:49;;;;;;;2.43;1.13;;;6.10;99.90;;;;;;5073361;28;20218;-67
2021/01/22 09:32:14;;;;;;;2.53;1.37;;;6.20;99.90;;;;;;5072832;28;20184;-68
2021/01/22 09:34:40;;;;;;;5.10;1.50;;;6.20;99.90;;;;;;5073961;28;20218;-68
2021/01/22 09:37:06;;;;;;;6.32;1.20;;;6.30;99.90;;;;;;5072280;28;20175;-68
2021/01/22 09:39:32;;;;;;;6.33;1.77;;;6.40;99.90;;;;;;5073834;28;20188;-68
2021/01/22 09:41:57;;;;;;;3.37;1.40;;;6.50;99.90;;;;;;5073462;28;20207;-68
2021/01/22 09:44:23;;;;;;;6.40;1.50;;;6.40;99.90;;;;;;5073425;28;20225;-68
2021/01/22 09:46:49;;;;;;;2.30;0.80;;;6.50;99.90;;;;;;5073471;28;20179;-68
2021/01/22 09:49:14;;;;;;;3.00;1.13;;;6.50;99.90;;;;;;5073306;28;20470;-68
2021/01/22 09:51:40;;;;;;;3.27;1.00;;;6.50;99.90;;;;;;5073807;28;20657;-69
2021/01/22 09:54:06;;;;;;;2.60;1.37;;;6.50;99.90;;;;;;5073478;28;20502;-68
2021/01/22 09:56:32;;;;;;;1.30;1.00;;;6.40;99.90;;;;;;5073374;28;20168;-67
2021/01/22 09:58:57;;;;;;;4.50;1.63;;;6.50;99.90;;;;;;5073426;28;20537;-69
2021/01/22 10:01:23;;;;;;;3.93;2.00;;;6.50;99.90;;;;;;5073074;28;20227;-69
2021/01/22 10:03:48;;;;;;;4.83;1.37;;;6.50;99.90;;;;;;5073178;28;20180;-68
2021/01/22 10:06:14;;;;;;;6.10;1.60;;;6.40;99.90;;;;;;5072963;28;20176;-69
2021/01/22 10:08:40;;;;;;;7.60;1.90;;;6.70;99.90;;;;;;5073019;28;20168;-69
2021/01/22 10:11:05;;;;;;;7.03;2.30;;;6.80;99.90;;;;;;5072980;28;20203;-67
2021/01/22 10:13:31;;;;;;;4.07;1.63;;;6.70;99.90;;;;;;5072884;28;20605;-69
2021/01/22 10:15:57;;;;;;;2.20;1.33;;;6.70;99.90;;;;;;5072506;28;20164;-69
2021/01/22 10:18:23;;;;;;;3.57;1.50;;;6.90;99.90;;;;;;5072853;28;20702;-68
2021/01/22 10:20:49;;;;;;;2.95;1.92;;;7.00;99.90;;;;;;5072704;28;20942;-69
2021/01/22 10:23:15;;;;;;;8.88;2.17;;;6.90;99.90;;;;;;5072950;28;20304;-68
2021/01/22 10:25:41;;;;;;;4.47;1.63;;;7.00;99.90;;;;;;5072821;28;20562;-69
2021/01/22 10:28:07;;;;;;;2.30;1.77;;;7.00;99.90;;;;;;5072513;28;20175;-69
2021/01/22 10:30:32;;;;;;;6.00;2.40;;;6.80;99.90;;;;;;5072932;28;20941;-68
2021/01/22 10:32:58;;;;;;;17.53;2.60;;;6.90;99.90;;;;;;5072767;28;20168;-63
2021/01/22 10:35:23;;;;;;;4.43;2.03;;;6.90;99.90;;;;;;5072574;28;20560;-67
2021/01/22 10:37:52;;;;;;;7.03;2.27;;;7.20;99.90;;;;;;5072762;28;20629;-68
2021/01/22 10:40:18;;;;;;;7.85;3.33;;;7.00;99.90;;;;;;5073081;28;20203;-69
2021/01/22 10:42:43;;;;;;;7.83;3.13;;;7.10;99.90;;;;;;5072643;28;20172;-69
2021/01/22 10:45:10;;;;;;;4.67;1.57;;;7.20;91.70;;;;;;5072505;28;20172;-68
2021/01/22 10:47:35;;;;;;;8.15;2.13;;;7.10;34.90;;;;;;5072779;28;20249;-69
2021/01/22 10:50:04;;;;;;;2.50;1.60;;;7.20;98.70;;;;;;5072965;28;20617;-69
2021/01/22 10:52:30;;;;;;;3.55;2.15;;;7.10;85.90;;;;;;5072414;28;20179;-68
2021/01/22 10:54:56;;;;;;;2.47;2.00;;;7.10;94.30;;;;;;5072657;28;20583;-68
2021/01/22 10:57:22;;;;;;;3.00;1.80;;;7.10;79.60;;;;;;5072600;28;20172;-69
2021/01/22 10:59:47;;;;;;;5.60;2.90;;;7.20;67.30;;;;;;5072605;28;20196;-68
2021/01/22 11:02:13;;;;;;;6.70;2.83;;;7.10;59.10;;;;;;5072424;28;20172;-69
2021/01/22 11:04:41;;;;;;;10.30;7.13;;;7.10;93.90;;;;;;5072173;28;20202;-69
2021/01/22 11:07:07;;;;;;;4.03;2.25;;;7.20;40.70;;;;;;5072457;28;20262;-69
2021/01/22 11:09:33;;;;;;;6.93;2.67;;;7.10;42.50;;;;;;5072438;28;20654;-69
2021/01/22 11:12:02;;;;;;;4.35;2.40;;;7.20;90.50;;;;;;5072204;28;20188;-67
2021/01/22 11:14:28;;;;;;;2.75;1.88;;;7.40;49.50;;;;;;5071112;28;20175;-69
2021/01/22 11:16:53;;;;;;;3.27;2.23;;;7.60;72.60;;;;;;5072577;28;20568;-68
2021/01/22 11:19:19;;;;;;;17.30;11.93;;;7.40;29.80;;;;;;5072324;28;20640;-68
2021/01/22 11:21:44;;;;;;;5.03;2.33;;;7.50;13.60;;;;;;5074917;28;20665;-69
2021/01/22 11:24:10;;;;;;;24.63;11.93;;;7.60;5.10;;;;;;5076283;28;20198;-69
2021/01/22 11:26:35;;;;;;;4.30;2.17;;;7.80;1.00;;;;;;5076366;28;20172;-69
2021/01/22 11:29:01;;;;;;;11.50;3.07;;;7.70;1.00;;;;;;5075930;28;20169;-70
2021/01/22 11:31:28;;;;;;;4.13;2.30;;;7.60;1.00;;;;;;5074484;28;20227;-69
2021/01/22 11:33:54;;;;;;;4.40;2.33;;;7.60;1.00;;;;;;5075953;28;20168;-67
2021/01/22 11:36:20;;;;;;;7.03;3.03;;;7.40;1.00;;;;;;5075578;28;20191;-68
2021/01/22 11:38:45;;;;;;;10.23;2.67;;;7.70;1.00;;;;;;5075932;28;20187;-69
2021/01/22 11:41:11;;;;;;;8.63;2.63;;;7.70;1.00;;;;;;5076263;28;20607;-69
2021/01/22 11:43:36;;;;;;;4.23;2.00;;;7.50;1.00;;;;;;5076212;28;20180;-69
2021/01/22 11:46:02;;;;;;;7.20;3.20;;;7.50;1.00;;;;;;5076670;28;20187;-67
2021/01/22 11:48:27;;;;;;;7.17;2.33;;;7.70;1.00;;;;;;5076926;28;20552;-68
2021/01/22 11:50:53;;;;;;;11.33;3.10;;;7.70;1.00;;;;;;5075448;28;20322;-69
2021/01/22 11:53:18;;;;;;;4.97;2.10;;;7.80;1.00;;;;;;5075858;28;20168;-69
2021/01/22 11:55:44;;;;;;;11.40;2.30;;;7.70;1.00;;;;;;5075534;28;20244;-68
2021/01/22 11:58:10;;;;;;;3.70;2.30;;;7.30;1.00;;;;;;5075385;28;20526;-67
2021/01/22 12:00:36;;;;;;;2.00;1.50;;;7.20;1.00;;;;;;5075373;28;20215;-68
2021/01/22 12:03:03;;;;;;;17.15;3.70;;;7.30;1.00;;;;;;5074930;28;20505;-69
2021/01/22 12:05:28;;;;;;;3.45;2.00;;;7.40;1.00;;;;;;5075302;28;20200;-69
2021/01/22 12:07:54;;;;;;;5.70;2.20;;;7.40;1.00;;;;;;5075657;28;20242;-69
2021/01/22 12:10:19;;;;;;;7.20;2.07;;;7.20;1.00;;;;;;5074996;28;20279;-67
2021/01/22 12:12:45;;;;;;;7.53;3.40;;;7.20;1.00;;;;;;5075403;28;20165;-68
2021/01/22 12:15:11;;;;;;;4.37;1.80;;;7.50;1.00;;;;;;5073938;28;20204;-68
2021/01/22 12:17:36;;;;;;;10.10;3.00;;;7.40;1.00;;;;;;5075533;28;20168;-69
2021/01/22 12:20:03;;;;;;;4.50;2.40;;;7.60;1.00;;;;;;5075074;28;20184;-70
2021/01/22 12:22:29;;;;;;;7.55;1.70;;;7.60;1.00;;;;;;5075059;28;20225;-69
2021/01/22 12:24:54;;;;;;;6.80;2.27;;;7.30;1.00;;;;;;5075152;28;20644;-69
2021/01/22 12:27:20;;;;;;;4.77;1.47;;;7.40;1.00;;;;;;5075264;28;20664;-69
2021/01/22 12:29:46;;;;;;;2.90;1.83;;;7.10;1.00;;;;;;5075383;28;20191;-69
2021/01/22 12:32:11;;;;;;;6.73;2.23;;;7.50;1.00;;;;;;5075081;28;20195;-69
2021/01/22 12:34:38;;;;;;;17.67;2.90;;;7.50;1.00;;;;;;5076367;28;20550;-69
2021/01/22 12:37:04;;;;;;;8.32;2.10;;;7.40;1.00;;;;;;5075958;28;20160;-68
2021/01/22 12:39:29;;;;;;;17.17;2.90;;;7.40;1.00;;;;;;5075307;28;20661;-68
2021/01/22 12:41:55;;;;;;;10.70;3.07;;;7.50;1.00;;;;;;5075133;28;20164;-69
2021/01/22 12:44:20;;;;;;;9.60;2.53;;;7.80;1.00;;;;;;5075125;28;20710;-69
2021/01/22 12:46:46;;;;;;;13.73;3.13;;;7.80;1.00;;;;;;5074947;28;20168;-68
2021/01/22 12:49:12;;;;;;;7.30;1.70;;;7.50;1.00;;;;;;5074511;28;20675;-67
2021/01/22 12:51:37;;;;;;;7.60;1.77;;;7.60;1.00;;;;;;5074607;28;20237;-69
2021/01/22 12:54:03;;;;;;;8.90;2.03;;;7.50;1.00;;;;;;5075103;28;20525;-68
2021/01/22 12:56:29;;;;;;;6.33;1.63;;;7.50;1.00;;;;;;5074435;28;20164;-68
2021/01/22 12:58:54;;;;;;;3.20;1.80;;;7.40;1.00;;;;;;5075180;28;20199;-70
2021/01/22 13:01:20;;;;;;;3.83;2.10;;;7.70;1.00;;;;;;5074391;28;20227;-68
2021/01/22 13:03:45;;;;;;;4.23;2.40;;;7.70;1.00;;;;;;5074563;28;20172;-69